Time;durP1;ratioP1;P1;durP2;ratioP2;P2;SDS_P1;SDS_P2;PMS_P1;PMS_P2;Temp;Humidity;BMP_temperature;BMP_pressure;BME280_temperature;BME280_humidity;BME280_pressure;Samples;Min_cycle;Max_cycle;Signal;HPM_P1;HPM_P2
2022/10/09 06:12:22;;;;;;;88.68;35.83;;;13.00;99.90;;;;;;3611454;24;20468;-84
2022/10/09 06:14:57;;;;;;;94.55;37.03;;;13.00;99.90;;;;;;4768800;30;20071;-86
2022/10/09 06:18:34;;;;;;;91.55;36.47;;;13.30;99.90;;;;;;4864791;24;20048;-85
2022/10/09 06:21:52;;;;;;;74.18;31.05;;;13.30;99.90;;;;;;4737750;30;20056;-83
2022/10/09 06:25:10;;;;;;;71.90;32.25;;;13.10;99.90;;;;;;4718458;30;20090;-86
2022/10/09 06:29:18;;;;;;;61.13;29.50;;;13.50;99.90;;;;;;4735707;30;20064;-84
2022/10/09 06:33:38;;;;;;;53.75;26.13;;;13.50;99.90;;;;;;4711207;30;20059;-87
2022/10/09 06:36:39;;;;;;;61.63;27.88;;;13.40;99.90;;;;;;4663060;30;20039;-84
2022/10/09 06:40:39;;;;;;;62.28;28.38;;;13.50;99.90;;;;;;4576696;31;20050;-86
2022/10/09 06:43:46;;;;;;;52.22;24.67;;;13.10;99.90;;;;;;4547310;31;20058;-85
2022/10/09 06:50:26;;;;;;;50.88;24.52;;;13.40;99.90;;;;;;4511485;31;20703;-85
2022/10/09 06:53:11;;;;;;;47.42;24.45;;;13.80;99.90;;;;;;4497634;31;20123;-83
2022/10/09 06:56:20;;;;;;;48.78;23.70;;;14.00;99.90;;;;;;4491126;31;20070;-85
2022/10/09 06:59:16;;;;;;;42.00;23.33;;;14.20;99.90;;;;;;4493615;32;20586;-87
2022/10/09 07:07:23;;;;;;;43.00;22.38;;;15.10;99.90;;;;;;5046168;24;20061;-85
2022/10/09 07:09:55;;;;;;;36.95;20.75;;;14.80;99.90;;;;;;4794004;29;20061;-83
2022/10/09 07:12:23;;;;;;;34.45;18.50;;;14.90;99.90;;;;;;4788503;29;20051;-84
2022/10/09 07:14:55;;;;;;;35.45;19.02;;;15.10;99.90;;;;;;4766894;29;20044;-84
2022/10/09 07:17:32;;;;;;;32.97;18.50;;;15.20;99.90;;;;;;4724079;30;20063;-84
2022/10/09 07:20:23;;;;;;;28.65;16.90;;;15.30;99.90;;;;;;4749970;30;20063;-85
2022/10/09 07:23:34;;;;;;;30.58;15.43;;;15.40;99.90;;;;;;4688093;30;20148;-84
2022/10/09 07:27:37;;;;;;;25.70;15.43;;;15.50;99.90;;;;;;4661912;30;20055;-86
2022/10/09 07:30:13;;;;;;;26.65;15.68;;;15.60;99.90;;;;;;4630655;30;20058;-84
2022/10/09 07:33:02;;;;;;;22.10;14.13;;;15.70;99.90;;;;;;4619793;31;20176;-82
2022/10/09 07:36:07;;;;;;;20.70;12.25;;;15.70;99.90;;;;;;4617552;31;20044;-85
2022/10/09 07:38:59;;;;;;;21.77;13.13;;;15.70;99.90;;;;;;4615595;31;20056;-86
2022/10/09 07:44:18;;;;;;;20.95;11.38;;;15.80;99.90;;;;;;4799278;29;20025;-85
2022/10/09 07:47:05;;;;;;;20.58;11.02;;;15.90;99.90;;;;;;4773098;30;20047;-85
2022/10/09 07:49:40;;;;;;;16.40;9.45;;;16.00;99.90;;;;;;4785349;30;20058;-85
2022/10/09 07:52:19;;;;;;;18.60;10.40;;;16.10;99.90;;;;;;4739305;30;20052;-85
2022/10/09 07:54:49;;;;;;;14.25;9.60;;;16.10;99.90;;;;;;4772029;30;20047;-86
2022/10/09 07:57:22;;;;;;;18.90;9.50;;;16.10;99.90;;;;;;5031708;24;20035;-85
2022/10/09 07:59:57;;;;;;;12.13;8.50;;;16.10;99.90;;;;;;4780558;30;20051;-87
2022/10/09 08:02:59;;;;;;;16.50;9.13;;;16.20;99.90;;;;;;4735999;30;20057;-83
2022/10/09 08:06:49;;;;;;;12.98;6.85;;;16.30;99.90;;;;;;4770156;30;20040;-86
2022/10/09 08:13:01;;;;;;;12.25;7.43;;;16.40;99.90;;;;;;5394337;24;20053;-85
2022/10/09 08:16:32;;;;;;;11.55;6.35;;;16.60;99.90;;;;;;4778245;29;20056;-87
2022/10/09 08:47:43;;;;;;;9.88;6.38;;;17.00;99.30;;;;;;5267854;24;20480;-86
2022/10/09 08:56:52;;;;;;;11.70;6.80;;;17.20;98.40;;;;;;5324594;24;20081;-85
2022/10/09 08:59:25;;;;;;;10.52;6.75;;;17.20;98.90;;;;;;4821791;29;20034;-87
2022/10/09 09:02:31;;;;;;;12.25;7.18;;;17.40;97.90;;;;;;4809840;29;20080;-85
2022/10/09 09:05:29;;;;;;;9.38;6.15;;;17.00;97.60;;;;;;4806470;29;20103;-86
2022/10/09 09:08:10;;;;;;;10.23;6.68;;;17.50;98.50;;;;;;4772183;29;20085;-84
2022/10/09 09:53:01;;;;;;;12.95;7.00;;;18.00;98.30;;;;;;5534024;24;20037;-87
2022/10/09 11:17:18;;;;;;;11.63;5.82;;;18.40;94.00;;;;;;4864893;24;20074;-92
2022/10/09 11:42:34;;;;;;;8.88;5.93;;;18.40;94.60;;;;;;4843129;24;20066;-93
2022/10/09 11:55:29;;;;;;;11.05;6.82;;;18.20;93.80;;;;;;4819692;24;20395;-91
2022/10/09 11:58:23;;;;;;;11.55;6.32;;;18.30;94.30;;;;;;4801762;29;20050;-89
2022/10/09 12:00:55;;;;;;;12.35;6.35;;;18.30;94.40;;;;;;4795819;29;20059;-95
2022/10/09 12:06:30;;;;;;;11.82;6.90;;;18.50;95.40;;;;;;4845951;24;20052;-92
2022/10/09 12:09:02;;;;;;;11.23;6.60;;;18.60;94.50;;;;;;4771371;29;20050;-93
2022/10/09 12:11:30;;;;;;;10.43;5.80;;;18.50;95.00;;;;;;4777393;30;20055;-90
2022/10/09 12:14:03;;;;;;;14.10;7.20;;;18.50;95.40;;;;;;4766013;30;20435;-87
2022/10/09 12:16:32;;;;;;;10.88;5.80;;;18.40;94.50;;;;;;4758101;30;20061;-94
2022/10/09 12:19:04;;;;;;;10.60;6.18;;;18.40;94.90;;;;;;4767886;29;20149;-95
2022/10/09 12:21:38;;;;;;;11.32;7.07;;;18.30;96.10;;;;;;4756078;30;20066;-94
2022/10/09 12:24:18;;;;;;;12.98;7.38;;;18.30;97.10;;;;;;4772496;29;20051;-94
2022/10/09 12:26:48;;;;;;;11.05;6.88;;;18.30;95.90;;;;;;4754947;29;20098;-93
2022/10/09 12:29:28;;;;;;;11.52;7.60;;;18.30;96.30;;;;;;4765215;29;20052;-94
2022/10/09 12:32:01;;;;;;;10.98;6.50;;;18.30;95.70;;;;;;4763379;30;20599;-93
2022/10/09 12:34:33;;;;;;;10.93;6.65;;;18.30;95.20;;;;;;4779446;29;20766;-93
2022/10/09 12:37:29;;;;;;;12.25;7.03;;;18.30;95.10;;;;;;4753785;30;20098;-92
2022/10/09 12:40:14;;;;;;;12.05;6.70;;;18.30;95.40;;;;;;4770451;29;20058;-92
2022/10/09 12:42:43;;;;;;;13.60;6.50;;;18.30;95.30;;;;;;4787473;29;20122;-95
2022/10/09 12:45:17;;;;;;;12.73;6.40;;;18.30;95.30;;;;;;4751614;29;20062;-94
2022/10/09 12:47:44;;;;;;;13.30;6.70;;;18.30;94.40;;;;;;4771025;30;20068;-95
2022/10/09 12:53:28;;;;;;;10.75;6.25;;;18.60;95.40;;;;;;4848205;24;20061;-95
2022/10/09 12:59:04;;;;;;;10.27;6.45;;;18.30;94.60;;;;;;4882157;24;20069;-93
2022/10/09 13:01:33;;;;;;;12.23;6.40;;;18.30;95.50;;;;;;4792758;29;20042;-94
2022/10/09 13:04:04;;;;;;;10.45;6.32;;;18.30;95.10;;;;;;4808192;29;20141;-94
2022/10/09 13:16:05;;;;;;;21.83;12.15;;;18.40;95.30;;;;;;4847434;24;20118;-93
2022/10/09 13:18:32;;;;;;;;;;;18.40;94.60;;;;;;4799626;29;20068;-93
2022/10/09 13:21:23;;;;;;;12.15;6.70;;;18.40;94.40;;;;;;4816276;29;19932;-92
2022/10/09 13:23:50;;;;;;;11.05;5.88;;;18.40;95.30;;;;;;4791917;29;20108;-92
2022/10/09 13:26:33;;;;;;;12.18;8.32;;;18.40;94.70;;;;;;4791218;29;20051;-93
2022/10/09 13:29:02;;;;;;;12.63;6.35;;;18.40;94.30;;;;;;4781797;29;20138;-95
2022/10/09 13:31:31;;;;;;;10.50;6.10;;;18.40;94.40;;;;;;4803518;29;20192;-91
2022/10/09 13:34:15;;;;;;;13.00;8.90;;;18.40;94.70;;;;;;4781835;29;20051;-91
2022/10/09 13:37:32;;;;;;;9.93;7.47;;;18.40;92.60;;;;;;4826566;24;20210;-94
2022/10/09 13:40:00;;;;;;;45.58;34.85;;;18.30;91.90;;;;;;4789359;29;20065;-93
2022/10/09 13:42:31;;;;;;;16.73;13.10;;;18.20;91.40;;;;;;4787837;29;20502;-95
2022/10/09 13:44:58;;;;;;;11.07;7.80;;;18.20;92.50;;;;;;4773077;29;20070;-93
2022/10/09 13:47:25;;;;;;;10.73;7.78;;;18.30;93.00;;;;;;4768874;29;20047;-94
2022/10/09 13:49:53;;;;;;;11.55;6.60;;;18.30;92.80;;;;;;4770381;29;20043;-93
2022/10/09 13:52:20;;;;;;;12.38;6.65;;;18.20;92.20;;;;;;4788443;29;20056;-93
2022/10/09 13:54:47;;;;;;;10.50;6.50;;;18.10;92.40;;;;;;4760806;29;20066;-94
2022/10/09 13:57:15;;;;;;;11.63;7.07;;;18.10;92.40;;;;;;4771787;29;20058;-94
2022/10/09 13:59:42;;;;;;;11.40;6.95;;;18.00;93.10;;;;;;4766065;29;20065;-93
2022/10/09 14:02:10;;;;;;;11.82;6.60;;;18.00;93.60;;;;;;4774611;29;20079;-92
2022/10/09 14:04:38;;;;;;;11.63;6.40;;;18.00;94.10;;;;;;4775157;29;20150;-94
2022/10/09 14:07:05;;;;;;;9.55;5.97;;;18.00;93.50;;;;;;4786162;29;20051;-92
2022/10/09 14:09:32;;;;;;;13.85;7.10;;;18.00;94.00;;;;;;4789319;29;20050;-93
2022/10/09 14:11:59;;;;;;;11.60;6.18;;;18.00;94.60;;;;;;4765782;29;20123;-92
2022/10/09 14:14:27;;;;;;;10.52;5.63;;;17.90;94.60;;;;;;4768543;29;20137;-91
2022/10/09 14:16:54;;;;;;;11.65;5.90;;;17.90;94.60;;;;;;4772312;29;20051;-92
2022/10/09 14:19:26;;;;;;;7.97;5.40;;;17.90;94.20;;;;;;4771962;29;20590;-93
2022/10/09 14:21:55;;;;;;;8.75;5.57;;;17.90;94.30;;;;;;4766129;30;20043;-94
2022/10/09 14:24:23;;;;;;;10.90;5.47;;;17.90;94.10;;;;;;4769229;29;20043;-93
2022/10/09 14:26:50;;;;;;;11.73;6.22;;;17.90;94.50;;;;;;4782791;29;20057;-94
2022/10/09 14:29:18;;;;;;;10.30;5.63;;;17.90;94.90;;;;;;4761052;30;20055;-94
2022/10/09 14:31:48;;;;;;;8.85;5.05;;;17.90;94.70;;;;;;4762896;30;20059;-93
2022/10/09 14:34:15;;;;;;;8.02;5.13;;;17.90;94.50;;;;;;4785919;29;20146;-94
2022/10/09 14:36:42;;;;;;;10.85;5.35;;;17.80;94.80;;;;;;4779830;29;20055;-93
2022/10/09 14:39:09;;;;;;;9.50;5.32;;;17.80;95.20;;;;;;4763568;29;20055;-94
2022/10/09 14:41:36;;;;;;;13.60;5.68;;;17.80;94.10;;;;;;4766981;29;20047;-94
2022/10/09 14:44:04;;;;;;;8.80;5.40;;;17.80;93.80;;;;;;4763337;30;20062;-90
2022/10/09 14:46:38;;;;;;;10.63;5.70;;;17.70;94.30;;;;;;4789489;29;20055;-94
2022/10/09 14:55:15;;;;;;;10.02;5.47;;;17.60;95.40;;;;;;4878831;24;20629;-94
2022/10/09 15:10:56;;;;;;;;;;;17.40;97.40;;;;;;4924068;24;20062;-94
2022/10/09 15:13:24;;;;;;;30.75;12.55;;;17.40;97.00;;;;;;4802817;29;19929;-93
2022/10/09 15:41:48;;;;;;;;;;;17.10;97.60;;;;;;5105940;24;20151;-93
